FW0797 Weather Reports


Display with metric or nautical units.
time (UTC)temp
F
wind
direction
speed
MPH
gust
MPH
rain 1hr
in
rain 24hr
in
rain mn
in
humidity
%
barometer
mb
20180424101951 43 205 3.0 9.0 0.00 0.00 0.00 67 1027.8
20180424100449 42 186 4.0 8.0 0.00 0.00 0.00 72 1027.8
20180424095049 42 210 4.0 11.0 0.00 0.00 0.00 72 1027.8
20180424093447 42 238 3.0 10.0 0.00 0.00 0.00 71 1027.7
20180424091950 42 198 2.0 11.0 0.00 0.00 0.00 71 1027.8
20180424090444 42 198 4.0 13.0 0.00 0.00 0.00 71 1027.9
20180424084943 42 285 3.0 11.0 0.00 0.00 0.00 69 1027.9
20180424083440 42 207 4.0 10.0 0.00 0.00 0.00 71 1028.0
20180424082039 43 176 4.0 13.0 0.00 0.00 0.00 73 1028.0
20180424080440 43 205 2.0 9.0 0.00 0.00 0.00 71 1028.1
20180424074939 43 204 3.0 11.0 0.00 0.00 0.00 71 1028.1
20180424073439 43 241 3.0 9.0 0.00 0.00 0.00 71 1028.0
20180424071935 43 207 5.0 12.0 0.00 0.00 0.00 71 1027.9
20180424070433 43 224 3.0 12.0 0.00 0.00 0.00 70 1027.9
20180424064934 43 233 5.0 10.0 0.00 0.00 0.00 72 1028.1
20180424063427 43 165 2.0 12.0 0.00 0.00 0.00 72 1028.3
20180424061928 43 229 4.0 8.0 0.00 0.00 0.00 75 1028.3
20180424060523 43 246 3.0 11.0 0.00 0.00 0.00 76 1028.4
20180424054921 43 217 3.0 9.0 0.00 0.00 0.00 76 1028.4
20180424053421 43 203 4.0 9.0 0.00 0.00 0.00 76 1028.4
20180424051920 43 175 4.0 12.0 0.00 0.00 0.00 78 1028.5
20180424050416 43 212 5.0 12.0 0.00 0.00 0.00 78 1028.5
20180424044918 43 191 4.0 10.0 0.00 0.00 0.00 77 1028.7
20180424043411 43 160 4.0 12.0 0.00 0.00 0.00 77 1028.8
20180424041909 43 240 5.0 10.0 0.00 0.00 0.00 77 1028.8
20180424040410 43 227 3.0 8.0 0.00 0.00 0.00 76 1029.0
20180424034909 43 172 4.0 11.0 0.00 0.00 0.00 74 1028.9
20180424033404 43 178 4.0 13.0 0.00 0.00 0.00 72 1028.9
20180424031906 44 211 4.0 15.0 0.00 0.00 0.00 70 1029.1
20180424030403 43 216 4.0 11.0 0.00 0.00 0.00 71 1029.1
20180424024901 44 191 4.0 12.0 0.00 0.00 0.00 68 1029.2
20180424023403 44 247 5.0 13.0 0.00 0.00 0.00 67 1029.1
20180424021901 43 248 5.0 16.0 0.00 0.00 0.00 68 1029.2
20180424020403 43 213 5.0 15.0 0.00 0.00 0.00 70 1029.5
20180424014902 43 175 3.0 8.0 0.00 0.00 0.00 70 1029.7
20180424013401 44 271 2.0 10.0 0.00 0.00 0.00 67 1029.6
20180424011857 44 254 3.0 10.0 0.00 0.00 0.00 62 1029.5
20180424010358 44 213 3.0 13.0 0.00 0.00 0.00 60 1029.2
20180424004858 44 251 5.0 11.0 0.00 0.00 0.00 61 1029.1
20180424003359 44 214 3.0 11.0 0.00 0.00 0.00 64 1029.1
20180424001856 44 229 3.0 9.0 0.00 0.00 0.00 65 1029.0
20180424000356 45 240 4.0 13.0 0.00 0.00 0.00 59 1028.9
20180423234853 45 138 3.0 12.0 0.00 0.00 0.00 60 1028.9
20180423233354 45 237 4.0 13.0 0.00 0.00 0.00 61 1029.1
20180423231853 46 255 5.0 11.0 0.00 0.00 0.00 59 1029.1
20180423230351 48 148 4.0 12.0 0.00 0.00 0.00 52 1029.1
20180423224853 49 168 1.0 11.0 0.00 0.00 0.00 45 1029.0
20180423223350 50 188 7.0 15.0 0.00 0.00 0.00 39 1028.9
20180423221852 51 181 2.0 8.0 0.00 0.00 0.00 36 1028.9
20180423220353 52 139 2.0 7.0 0.00 0.00 0.00 35 1028.8
20180423214852 53 158 2.0 9.0 0.00 0.00 0.00 34 1028.9
20180423213347 54 215 3.0 9.0 0.00 0.00 0.00 32 1028.9
20180423211847 55 180 4.0 9.0 0.00 0.00 0.00 33 1029.0
20180423210346 55 229 2.0 6.0 0.00 0.00 0.00 35 1029.1
20180423204845 56 196 3.0 9.0 0.00 0.00 0.00 31 1029.1
20180423203343 55 158 2.0 8.0 0.00 0.00 0.00 33 1029.1
20180423201845 55 224 3.0 8.0 0.00 0.00 0.00 36 1029.2
20180423200347 56 135 2.0 8.0 0.00 0.00 0.00 34 1029.4
20180423194844 55 146 5.0 10.0 0.00 0.00 0.00 33 1029.5
20180423193341 55 107 4.0 11.0 0.00 0.00 0.00 30 1029.5
20180423191942 55 113 5.0 9.0 0.00 0.00 0.00 32 1029.5
20180423190341 56 161 4.0 10.0 0.00 0.00 0.00 28 1029.8
20180423184840 56 159 5.0 11.0 0.00 0.00 0.00 27 1030.0
20180423183341 56 222 4.0 10.0 0.00 0.00 0.00 30 1030.2
20180423181839 56 104 5.0 10.0 0.00 0.00 0.00 30 1030.3
20180423180339 56 120 5.0 9.0 0.00 0.00 0.00 35 1030.4
20180423174843 56 156 5.0 11.0 0.00 0.00 0.00 35 1030.4
20180423173335 55 187 4.0 10.0 0.00 0.00 0.00 36 1030.5
20180423171839 55 120 4.0 10.0 0.00 0.00 0.00 37 1030.6
20180423170335 56 149 5.0 9.0 0.00 0.00 0.00 38 1030.7
20180423164834 53 114 5.0 12.0 0.00 0.00 0.00 43 1030.6
20180423163332 56 163 4.0 9.0 0.00 0.00 0.00 39 1030.7
20180423161831 56 113 4.0 9.0 0.00 0.00 0.00 35 1030.9
20180423160331 57 95 3.0 8.0 0.00 0.00 0.00 34 1031.2
20180423154830 57 120 2.0 6.0 0.00 0.00 0.00 26 1031.2
20180423153332 56 104 3.0 6.0 0.00 0.00 0.00 37 1031.5
20180423151826 56 115 2.0 7.0 0.00 0.00 0.00 26 1031.6
20180423150326 57 77 1.0 4.0 0.00 0.00 0.00 23 1031.7
20180423144826 56 5 1.0 3.0 0.00 0.00 0.00 24 1031.8
20180423143325 55 326 2.0 4.0 0.00 0.00 0.00 25 1032.0
20180423141819 54 331 1.0 5.0 0.00 0.00 0.00 27 1032.1
20180423140315 53 13 2.0 6.0 0.00 0.00 0.00 27 1032.1
20180423134815 52 6 1.0 5.0 0.00 0.00 0.00 30 1032.2
20180423133309 51 17 3.0 6.0 0.00 0.00 0.00 32 1032.3
20180423131806 50 11 2.0 4.0 0.00 0.00 0.00 35 1032.2
20180423130303 48 11 1.0 5.0 0.00 0.00 0.00 40 1032.2
20180423124803 47 321 2.0 5.0 0.00 0.00 0.00 42 1032.0
20180423123254 45 353 4.0 7.0 0.00 0.00 0.00 43 1031.8
20180423121756 43 338 4.0 6.0 0.00 0.00 0.00 46 1031.6
20180423120256 42 342 4.0 6.0 0.00 0.00 0.00 49 1031.6
20180423114754 40 331 4.0 6.0 0.00 0.00 0.00 53 1031.5
20180423113248 41 340 2.0 5.0 0.00 0.00 0.00 61 1031.4
20180423111746 40 319 4.0 6.0 0.00 0.00 0.00 52 1031.3
20180423110245 38 324 3.0 5.0 0.00 0.00 0.00 60 1031.0
20180423104742 36 327 3.0 5.0 0.00 0.00 0.00 66 1030.8